Penngrove, CA (94951)

5:28 AM PDT on August 28, 2014 (GMT -0700)
Volamus Vineyards | Change Station
CLOSE
Current Station
Personal Weather Station
Location: Penngrove, CA
Elevation: 115 ft
Nearby Weather Stations

Elev 115 ft 38.31 °N, 122.67 °W | Updated 4 minutes ago

Overcast
Overcast
57.2 °F
Feels Like 57.2 °F
N
1.0
Wind Variable Wind from NNW
Gusts 0.0 mph

Today
High -- | Low -- °F
--% Chance of Precip.
Yesterday
High -- | Low -- °F
Precip. -- in
6:36 AM 7:46 PM
Waxing Crescent, 8% visible
Pressure 30.03 in
Visibility 5.0 miles
Clouds Overcast 400 ft
Dew Point 56 °F
Humidity 95%
Rainfall 0.00 in
Snow Depth Not available.
UV 0 out of 12
Pollen 7.30 out of 12
Air Quality Not available.
Flu Activity Not available.
METAR KSTS 281153Z AUTO 26003KT 5SM BR OVC004 13/13 A3005 RMK AO2 SLP169 T01330128 10144 20133 51005

More Conditions Fewer Conditions

Pressure 30.03 in
Visibility 5.0 miles
Clouds Overcast 400 ft
Dew Point 56 °F
Humidity 95%
Rainfall 0.00 in
Snow Depth Not available.
UV 0 out of 12
Pollen 7.30 out of 12
Air Quality Not available.
Flu Activity Not available.
METAR KSTS 281153Z AUTO 26003KT 5SM BR OVC004 13/13 A3005 RMK AO2 SLP169 T01330128 10144 20133 51005

More Conditions Fewer Conditions

10-Day Weather Forecast

Almanac

Astronomy

Aug. 28, 2014 Rise Set
Actual Time 6:36 AM PDT 7:46 PM PDT
Civil Twilight 6:09 AM PDT 8:13 PM PDT
Nautical Twilight 5:36 AM PDT 8:45 PM PDT
Astronomical Twilight 5:02 AM PDT 9:19 PM PDT
Moon 9:31 AM PDT 9:16 PM PDT
Length of Visible Light 14h 03m
Length of Day
13h 09m
Tomorrow will be 2m 21s shorter.
Waxing Crescent, 8% of the Moon is Illuminated
Today
Waxing Crescent
Sep 2
First Quarter
Sep 8
Full
Sep 15
Last Quarter
Sep 24
New

Today's Extremes

State Highs State Lows

Community

WunderPhotos

Upload Photos

1,747,938 photos uploaded!

Nearby

Air Quality

  Air Quality AQ Index Pollutant
Thursday Moderate
PM2.5
Friday Good
PM2.5
Saturday Good
PM2.5
Sunday Good
OZONE
Monday Good
OZONE

Snow Depth

Station Depth Elevation
CSS Lab 2 in 6900 ft
Rubicon #2 0 in 7500 ft
Echo Peak 0 in 7800 ft
Fallen Leaf 0 in 6300 ft
Tahoe City Cross 0 in 6750 ft

Earthquake Activity

City Distance Mag. Time & Date
Napa, California 17 miles 2.6 11:57 AM PDT
2014-08-27
The Geysers, California 35 miles 2.6 7:42 AM PDT
2014-08-27
Soledad, California 149 miles 2.6 12:15 PM PDT
2014-08-26
Napa, California 17 miles 2.5 10:56 AM PDT
2014-08-26
Minimum magnitude displayed is 2.5.

Coastal Water Temperatures

Place Temperature
Point Reyes, CA 64.0 °F
Arena Cove, CA 61.0 °F
San Francisco, CA 64.9 °F
Richmond, CA 66.9 °F

Nearby Weather Stations